sensor_id;sensor_type;location;lat;lon;timestamp;pressure;altitude;pressure_sealevel;temperature;humidity
37238;BME280;23129;49.662;8.448;2023-02-13T00:01:27;102835.16;;;4.23;100.00
37238;BME280;23129;49.662;8.448;2023-02-13T00:03:55;102830.94;;;4.26;100.00
37238;BME280;23129;49.662;8.448;2023-02-13T00:06:24;102826.63;;;4.27;100.00
37238;BME280;23129;49.662;8.448;2023-02-13T00:08:53;102827.56;;;4.29;100.00
37238;BME280;23129;49.662;8.448;2023-02-13T00:11:21;102818.13;;;4.31;100.00
37238;BME280;23129;49.662;8.448;2023-02-13T00:13:50;102814.69;;;4.32;100.00
37238;BME280;23129;49.662;8.448;2023-02-13T00:16:19;102821.72;;;4.34;100.00
37238;BME280;23129;49.662;8.448;2023-02-13T00:18:48;102820.88;;;4.35;100.00
37238;BME280;23129;49.662;8.448;2023-02-13T00:21:16;102820.94;;;4.37;100.00
37238;BME280;23129;49.662;8.448;2023-02-13T00:23:45;102820.09;;;4.38;100.00
37238;BME280;23129;49.662;8.448;2023-02-13T00:26:15;102824.47;;;4.39;100.00
37238;BME280;23129;49.662;8.448;2023-02-13T00:28:44;102826.25;;;4.40;100.00
37238;BME280;23129;49.662;8.448;2023-02-13T00:31:15;102819.28;;;4.39;100.00
37238;BME280;23129;49.662;8.448;2023-02-13T00:33:45;102821.88;;;4.39;100.00
37238;BME280;23129;49.662;8.448;2023-02-13T00:36:14;102819.22;;;4.38;100.00
37238;BME280;23129;49.662;8.448;2023-02-13T00:38:44;102821.75;;;4.36;100.00
37238;BME280;23129;49.662;8.448;2023-02-13T00:41:14;102818.25;;;4.34;100.00
37238;BME280;23129;49.662;8.448;2023-02-13T00:43:43;102826.84;;;4.33;100.00
37238;BME280;23129;49.662;8.448;2023-02-13T00:46:12;102816.34;;;4.30;100.00
37238;BME280;23129;49.662;8.448;2023-02-13T00:48:41;102820.53;;;4.26;100.00
37238;BME280;23129;49.662;8.448;2023-02-13T00:51:11;102813.47;;;4.22;100.00
37238;BME280;23129;49.662;8.448;2023-02-13T00:53:39;102817.66;;;4.19;100.00
37238;BME280;23129;49.662;8.448;2023-02-13T00:56:08;102817.53;;;4.16;100.00
37238;BME280;23129;49.662;8.448;2023-02-13T00:58:36;102820.88;;;4.11;100.00
37238;BME280;23129;49.662;8.448;2023-02-13T01:01:05;102824.97;;;4.05;100.00
37238;BME280;23129;49.662;8.448;2023-02-13T01:03:34;102829.97;;;4.00;100.00
37238;BME280;23129;49.662;8.448;2023-02-13T01:06:03;102834.13;;;3.95;100.00
37238;BME280;23129;49.662;8.448;2023-02-13T01:08:34;102827.84;;;3.90;100.00
37238;BME280;23129;49.662;8.448;2023-02-13T01:11:02;102823.38;;;3.86;100.00
37238;BME280;23129;49.662;8.448;2023-02-13T01:13:30;102827.63;;;3.84;100.00
37238;BME280;23129;49.662;8.448;2023-02-13T01:15:59;102823.19;;;3.81;100.00
37238;BME280;23129;49.662;8.448;2023-02-13T01:18:27;102828.31;;;3.80;100.00
37238;BME280;23129;49.662;8.448;2023-02-13T01:20:59;102827.44;;;3.79;100.00
37238;BME280;23129;49.662;8.448;2023-02-13T01:23:31;102830.00;;;3.78;100.00
37238;BME280;23129;49.662;8.448;2023-02-13T01:26:02;102822.09;;;3.75;100.00
37238;BME280;23129;49.662;8.448;2023-02-13T01:28:31;102823.72;;;3.73;100.00
37238;BME280;23129;49.662;8.448;2023-02-13T01:31:00;102817.56;;;3.71;100.00
37238;BME280;23129;49.662;8.448;2023-02-13T01:33:30;102827.03;;;3.69;100.00
37238;BME280;23129;49.662;8.448;2023-02-13T01:35:58;102825.19;;;3.66;100.00
37238;BME280;23129;49.662;8.448;2023-02-13T01:38:28;102826.03;;;3.65;100.00
37238;BME280;23129;49.662;8.448;2023-02-13T01:40:57;102820.78;;;3.63;100.00
37238;BME280;23129;49.662;8.448;2023-02-13T01:43:44;102825.00;;;3.61;100.00
37238;BME280;23129;49.662;8.448;2023-02-13T01:46:20;102822.41;;;3.61;100.00
37238;BME280;23129;49.662;8.448;2023-02-13T01:48:51;102817.09;;;3.58;100.00
37238;BME280;23129;49.662;8.448;2023-02-13T01:51:24;102817.94;;;3.57;100.00
37238;BME280;23129;49.662;8.448;2023-02-13T01:53:59;102812.66;;;3.56;100.00
37238;BME280;23129;49.662;8.448;2023-02-13T01:56:32;102818.78;;;3.56;100.00
37238;BME280;23129;49.662;8.448;2023-02-13T01:59:06;102822.19;;;3.55;100.00
37238;BME280;23129;49.662;8.448;2023-02-13T02:01:36;102816.97;;;3.55;100.00
37238;BME280;23129;49.662;8.448;2023-02-13T02:04:09;102815.22;;;3.54;100.00
37238;BME280;23129;49.662;8.448;2023-02-13T02:06:41;102816.09;;;3.55;100.00
37238;BME280;23129;49.662;8.448;2023-02-13T02:09:15;102815.16;;;3.53;100.00
37238;BME280;23129;49.662;8.448;2023-02-13T02:11:53;102815.09;;;3.51;100.00
37238;BME280;23129;49.662;8.448;2023-02-13T02:14:25;102818.53;;;3.50;100.00
37238;BME280;23129;49.662;8.448;2023-02-13T02:16:56;102816.75;;;3.49;100.00
37238;BME280;23129;49.662;8.448;2023-02-13T02:19:34;102815.00;;;3.48;100.00
37238;BME280;23129;49.662;8.448;2023-02-13T02:22:41;102817.47;;;3.45;100.00
37238;BME280;23129;49.662;8.448;2023-02-13T02:25:53;102804.38;;;3.42;100.00
37238;BME280;23129;49.662;8.448;2023-02-13T02:28:55;102807.63;;;3.38;100.00
37238;BME280;23129;49.662;8.448;2023-02-13T02:31:59;102810.94;;;3.34;100.00
37238;BME280;23129;49.662;8.448;2023-02-13T02:34:39;102813.41;;;3.31;100.00
37238;BME280;23129;49.662;8.448;2023-02-13T02:37:23;102814.88;;;3.24;100.00
37238;BME280;23129;49.662;8.448;2023-02-13T02:40:04;102812.09;;;3.19;100.00
37238;BME280;23129;49.662;8.448;2023-02-13T02:42:47;102810.91;;;3.11;100.00
37238;BME280;23129;49.662;8.448;2023-02-13T02:45:25;102812.34;;;3.05;100.00
37238;BME280;23129;49.662;8.448;2023-02-13T02:48:01;102811.34;;;3.01;100.00
37238;BME280;23129;49.662;8.448;2023-02-13T02:51:16;102811.78;;;2.91;100.00
37238;BME280;23129;49.662;8.448;2023-02-13T02:54:02;102808.94;;;2.85;100.00
37238;BME280;23129;49.662;8.448;2023-02-13T02:56:53;102813.88;;;2.79;100.00
37238;BME280;23129;49.662;8.448;2023-02-13T02:59:27;102810.25;;;2.75;100.00
37238;BME280;23129;49.662;8.448;2023-02-13T03:02:15;102812.66;;;2.70;100.00
37238;BME280;23129;49.662;8.448;2023-02-13T03:05:08;102810.75;;;2.66;100.00
37238;BME280;23129;49.662;8.448;2023-02-13T03:08:01;102819.16;;;2.61;100.00
37238;BME280;23129;49.662;8.448;2023-02-13T03:10:34;102822.41;;;2.57;100.00
37238;BME280;23129;49.662;8.448;2023-02-13T03:13:38;102815.25;;;2.51;100.00
37238;BME280;23129;49.662;8.448;2023-02-13T03:16:14;102821.13;;;2.47;100.00
37238;BME280;23129;49.662;8.448;2023-02-13T03:19:01;102821.00;;;2.44;100.00
37238;BME280;23129;49.662;8.448;2023-02-13T03:21:53;102819.03;;;2.38;100.00
37238;BME280;23129;49.662;8.448;2023-02-13T03:24:48;102818.84;;;2.34;100.00
37238;BME280;23129;49.662;8.448;2023-02-13T03:27:33;102824.75;;;2.31;100.00
37238;BME280;23129;49.662;8.448;2023-02-13T03:30:38;102819.44;;;2.28;100.00
37238;BME280;23129;49.662;8.448;2023-02-13T03:33:22;102827.97;;;2.25;100.00
37238;BME280;23129;49.662;8.448;2023-02-13T03:36:03;102824.41;;;2.23;100.00
37238;BME280;23129;49.662;8.448;2023-02-13T03:38:57;102831.38;;;2.24;100.00
37238;BME280;23129;49.662;8.448;2023-02-13T03:41:32;102832.19;;;2.23;100.00
37238;BME280;23129;49.662;8.448;2023-02-13T03:44:12;102839.81;;;2.20;100.00
37238;BME280;23129;49.662;8.448;2023-02-13T03:46:45;102835.47;;;2.19;100.00
37238;BME280;23129;49.662;8.448;2023-02-13T03:49:19;102832.88;;;2.19;100.00
37238;BME280;23129;49.662;8.448;2023-02-13T03:52:11;102834.50;;;2.17;100.00
37238;BME280;23129;49.662;8.448;2023-02-13T03:54:46;102843.00;;;2.15;100.00
37238;BME280;23129;49.662;8.448;2023-02-13T03:57:37;102843.75;;;2.12;100.00
37238;BME280;23129;49.662;8.448;2023-02-13T04:00:27;102833.19;;;2.08;100.00
37238;BME280;23129;49.662;8.448;2023-02-13T04:03:03;102830.38;;;2.03;100.00
37238;BME280;23129;49.662;8.448;2023-02-13T04:05:40;102833.56;;;1.97;100.00
37238;BME280;23129;49.662;8.448;2023-02-13T04:08:10;102831.75;;;1.95;100.00
37238;BME280;23129;49.662;8.448;2023-02-13T04:10:47;102835.97;;;1.93;100.00
37238;BME280;23129;49.662;8.448;2023-02-13T04:13:22;102831.47;;;1.89;100.00
37238;BME280;23129;49.662;8.448;2023-02-13T04:15:57;102830.50;;;1.87;100.00
37238;BME280;23129;49.662;8.448;2023-02-13T04:18:31;102833.84;;;1.84;100.00
37238;BME280;23129;49.662;8.448;2023-02-13T04:21:01;102834.56;;;1.81;100.00
37238;BME280;23129;49.662;8.448;2023-02-13T04:23:30;102833.59;;;1.79;100.00
37238;BME280;23129;49.662;8.448;2023-02-13T04:26:04;102837.84;;;1.77;100.00
37238;BME280;23129;49.662;8.448;2023-02-13T04:28:33;102830.59;;;1.70;100.00
37238;BME280;23129;49.662;8.448;2023-02-13T04:31:01;102840.00;;;1.68;100.00
37238;BME280;23129;49.662;8.448;2023-02-13T04:33:30;102836.53;;;1.68;100.00
37238;BME280;23129;49.662;8.448;2023-02-13T04:35:58;102833.84;;;1.66;100.00
37238;BME280;23129;49.662;8.448;2023-02-13T04:38:27;102838.06;;;1.64;100.00
37238;BME280;23129;49.662;8.448;2023-02-13T04:40:55;102830.25;;;1.63;100.00
37238;BME280;23129;49.662;8.448;2023-02-13T04:43:25;102833.72;;;1.63;100.00
37238;BME280;23129;49.662;8.448;2023-02-13T04:45:54;102824.19;;;1.62;100.00
37238;BME280;23129;49.662;8.448;2023-02-13T04:48:22;102832.75;;;1.61;100.00
37238;BME280;23129;49.662;8.448;2023-02-13T04:50:51;102830.09;;;1.59;100.00
37238;BME280;23129;49.662;8.448;2023-02-13T04:53:19;102828.25;;;1.57;100.00
37238;BME280;23129;49.662;8.448;2023-02-13T04:55:48;102825.66;;;1.57;100.00
37238;BME280;23129;49.662;8.448;2023-02-13T04:58:16;102831.66;;;1.56;100.00
37238;BME280;23129;49.662;8.448;2023-02-13T05:00:46;102825.53;;;1.54;100.00
37238;BME280;23129;49.662;8.448;2023-02-13T05:03:15;102820.34;;;1.54;100.00
37238;BME280;23129;49.662;8.448;2023-02-13T05:05:43;102821.97;;;1.52;100.00
37238;BME280;23129;49.662;8.448;2023-02-13T05:08:12;102830.53;;;1.51;100.00
37238;BME280;23129;49.662;8.448;2023-02-13T05:10:40;102832.16;;;1.49;100.00
37238;BME280;23129;49.662;8.448;2023-02-13T05:13:09;102825.22;;;1.48;100.00
37238;BME280;23129;49.662;8.448;2023-02-13T05:15:37;102830.41;;;1.48;100.00
37238;BME280;23129;49.662;8.448;2023-02-13T05:18:07;102826.06;;;1.47;100.00
37238;BME280;23129;49.662;8.448;2023-02-13T05:20:36;102832.03;;;1.46;100.00
37238;BME280;23129;49.662;8.448;2023-02-13T05:23:04;102831.97;;;1.44;100.00
37238;BME280;23129;49.662;8.448;2023-02-13T05:25:50;102834.47;;;1.43;100.00
37238;BME280;23129;49.662;8.448;2023-02-13T05:28:18;102836.16;;;1.42;100.00
37238;BME280;23129;49.662;8.448;2023-02-13T05:31:05;102835.94;;;1.37;100.00
37238;BME280;23129;49.662;8.448;2023-02-13T05:33:35;102834.84;;;1.32;100.00
37238;BME280;23129;49.662;8.448;2023-02-13T05:36:04;102830.97;;;1.24;100.00
37238;BME280;23129;49.662;8.448;2023-02-13T05:38:32;102834.25;;;1.20;100.00
37238;BME280;23129;49.662;8.448;2023-02-13T05:41:01;102833.19;;;1.17;100.00
37238;BME280;23129;49.662;8.448;2023-02-13T05:43:29;102832.16;;;1.13;100.00
37238;BME280;23129;49.662;8.448;2023-02-13T05:46:03;102831.84;;;1.07;100.00
37238;BME280;23129;49.662;8.448;2023-02-13T05:48:33;102827.25;;;1.01;100.00
37238;BME280;23129;49.662;8.448;2023-02-13T05:51:03;102827.84;;;0.96;100.00
37238;BME280;23129;49.662;8.448;2023-02-13T05:53:31;102826.81;;;0.92;100.00
37238;BME280;23129;49.662;8.448;2023-02-13T05:56:02;102824.72;;;0.85;100.00
37238;BME280;23129;49.662;8.448;2023-02-13T05:58:31;102829.59;;;0.79;100.00
37238;BME280;23129;49.662;8.448;2023-02-13T06:00:59;102823.38;;;0.75;100.00
37238;BME280;23129;49.662;8.448;2023-02-13T06:03:29;102830.88;;;0.71;100.00
37238;BME280;23129;49.662;8.448;2023-02-13T06:05:59;102830.66;;;0.66;100.00
37238;BME280;23129;49.662;8.448;2023-02-13T06:08:28;102832.34;;;0.65;100.00
37238;BME280;23129;49.662;8.448;2023-02-13T06:10:57;102836.63;;;0.65;100.00
37238;BME280;23129;49.662;8.448;2023-02-13T06:13:26;102839.19;;;0.65;100.00
37238;BME280;23129;49.662;8.448;2023-02-13T06:15:54;102829.69;;;0.64;100.00
37238;BME280;23129;49.662;8.448;2023-02-13T06:18:23;102831.47;;;0.65;100.00
37238;BME280;23129;49.662;8.448;2023-02-13T06:20:51;102836.63;;;0.65;100.00
37238;BME280;23129;49.662;8.448;2023-02-13T06:23:21;102831.47;;;0.65;100.00
37238;BME280;23129;49.662;8.448;2023-02-13T06:25:49;102834.84;;;0.64;100.00
37238;BME280;23129;49.662;8.448;2023-02-13T06:28:17;102830.66;;;0.66;100.00
37238;BME280;23129;49.662;8.448;2023-02-13T06:30:47;102839.31;;;0.66;100.00
37238;BME280;23129;49.662;8.448;2023-02-13T06:33:16;102836.72;;;0.66;100.00
37238;BME280;23129;49.662;8.448;2023-02-13T06:35:44;102844.47;;;0.66;100.00
37238;BME280;23129;49.662;8.448;2023-02-13T06:38:13;102848.81;;;0.67;100.00
37238;BME280;23129;49.662;8.448;2023-02-13T06:40:46;102848.91;;;0.69;100.00
37238;BME280;23129;49.662;8.448;2023-02-13T06:43:15;102842.91;;;0.70;100.00
37238;BME280;23129;49.662;8.448;2023-02-13T06:45:44;102849.06;;;0.72;100.00
37238;BME280;23129;49.662;8.448;2023-02-13T06:48:14;102838.88;;;0.75;100.00
37238;BME280;23129;49.662;8.448;2023-02-13T06:50:42;102848.41;;;0.76;100.00
37238;BME280;23129;49.662;8.448;2023-02-13T06:53:11;102850.16;;;0.77;100.00
37238;BME280;23129;49.662;8.448;2023-02-13T06:55:39;102853.56;;;0.76;100.00
37238;BME280;23129;49.662;8.448;2023-02-13T06:58:08;102852.75;;;0.77;100.00
37238;BME280;23129;49.662;8.448;2023-02-13T07:00:37;102848.47;;;0.78;100.00
37238;BME280;23129;49.662;8.448;2023-02-13T07:03:05;102859.88;;;0.81;100.00
37238;BME280;23129;49.662;8.448;2023-02-13T07:05:38;102862.75;;;0.87;100.00
37238;BME280;23129;49.662;8.448;2023-02-13T07:08:07;102855.31;;;0.94;100.00
37238;BME280;23129;49.662;8.448;2023-02-13T07:10:36;102850.44;;;1.00;100.00
37238;BME280;23129;49.662;8.448;2023-02-13T07:13:05;102860.94;;;1.03;100.00
37238;BME280;23129;49.662;8.448;2023-02-13T07:15:36;102848.16;;;1.06;100.00
37238;BME280;23129;49.662;8.448;2023-02-13T07:18:05;102857.06;;;1.11;100.00
37238;BME280;23129;49.662;8.448;2023-02-13T07:20:34;102858.16;;;1.16;100.00
37238;BME280;23129;49.662;8.448;2023-02-13T07:23:04;102860.97;;;1.21;100.00
37238;BME280;23129;49.662;8.448;2023-02-13T07:25:33;102871.63;;;1.27;100.00
37238;BME280;23129;49.662;8.448;2023-02-13T07:28:02;102869.38;;;1.34;100.00
37238;BME280;23129;49.662;8.448;2023-02-13T07:30:31;102874.13;;;1.43;100.00
37238;BME280;23129;49.662;8.448;2023-02-13T07:33:03;102865.00;;;1.50;100.00
37238;BME280;23129;49.662;8.448;2023-02-13T07:35:32;102863.50;;;1.55;100.00
37238;BME280;23129;49.662;8.448;2023-02-13T07:38:02;102868.06;;;1.60;100.00
37238;BME280;23129;49.662;8.448;2023-02-13T07:40:30;102864.22;;;1.70;100.00
37238;BME280;23129;49.662;8.448;2023-02-13T07:42:59;102865.63;;;1.81;100.00
37238;BME280;23129;49.662;8.448;2023-02-13T07:45:28;102870.56;;;1.95;100.00
37238;BME280;23129;49.662;8.448;2023-02-13T07:47:57;102868.56;;;2.07;100.00
37238;BME280;23129;49.662;8.448;2023-02-13T07:50:27;102861.34;;;2.19;100.00
37238;BME280;23129;49.662;8.448;2023-02-13T07:52:56;102874.16;;;2.36;100.00
37238;BME280;23129;49.662;8.448;2023-02-13T07:55:25;102862.97;;;2.56;100.00
37238;BME280;23129;49.662;8.448;2023-02-13T07:57:55;102866.47;;;2.76;100.00
37238;BME280;23129;49.662;8.448;2023-02-13T08:00:23;102861.06;;;2.91;100.00
37238;BME280;23129;49.662;8.448;2023-02-13T08:02:52;102868.00;;;3.13;100.00
37238;BME280;23129;49.662;8.448;2023-02-13T08:05:20;102868.84;;;3.33;100.00
37238;BME280;23129;49.662;8.448;2023-02-13T08:07:50;102860.41;;;3.59;100.00
37238;BME280;23129;49.662;8.448;2023-02-13T08:10:20;102859.78;;;3.87;100.00
37238;BME280;23129;49.662;8.448;2023-02-13T08:13:06;102861.69;;;4.16;100.00
37238;BME280;23129;49.662;8.448;2023-02-13T08:15:35;102867.00;;;4.41;100.00
37238;BME280;23129;49.662;8.448;2023-02-13T08:18:04;102868.72;;;4.65;100.00
37238;BME280;23129;49.662;8.448;2023-02-13T08:20:32;102863.28;;;4.83;100.00
37238;BME280;23129;49.662;8.448;2023-02-13T08:23:08;102862.25;;;5.03;100.00
37238;BME280;23129;49.662;8.448;2023-02-13T08:25:37;102865.56;;;5.24;100.00
37238;BME280;23129;49.662;8.448;2023-02-13T08:28:07;102861.94;;;5.46;100.00
37238;BME280;23129;49.662;8.448;2023-02-13T08:30:35;102864.59;;;5.75;100.00
37238;BME280;23129;49.662;8.448;2023-02-13T08:33:04;102858.41;;;5.99;100.00
37238;BME280;23129;49.662;8.448;2023-02-13T08:35:32;102862.53;;;6.22;100.00
37238;BME280;23129;49.662;8.448;2023-02-13T08:38:02;102861.47;;;6.46;100.00
37238;BME280;23129;49.662;8.448;2023-02-13T08:40:32;102856.16;;;6.73;100.00
37238;BME280;23129;49.662;8.448;2023-02-13T08:43:01;102855.03;;;6.96;100.00
37238;BME280;23129;49.662;8.448;2023-02-13T08:45:31;102856.25;;;7.09;100.00
37238;BME280;23129;49.662;8.448;2023-02-13T08:48:00;102852.94;;;7.16;100.00
37238;BME280;23129;49.662;8.448;2023-02-13T08:50:30;102858.53;;;7.31;100.00
37238;BME280;23129;49.662;8.448;2023-02-13T08:52:59;102855.50;;;7.49;100.00
37238;BME280;23129;49.662;8.448;2023-02-13T08:55:27;102852.47;;;7.69;100.00
37238;BME280;23129;49.662;8.448;2023-02-13T08:58:00;102851.22;;;7.91;100.00
37238;BME280;23129;49.662;8.448;2023-02-13T09:00:29;102849.00;;;8.09;100.00
37238;BME280;23129;49.662;8.448;2023-02-13T09:02:59;102850.25;;;8.28;100.00
37238;BME280;23129;49.662;8.448;2023-02-13T09:05:29;102848.94;;;8.47;100.00
37238;BME280;23129;49.662;8.448;2023-02-13T09:07:59;102842.31;;;8.66;100.00
37238;BME280;23129;49.662;8.448;2023-02-13T09:10:30;102846.97;;;8.81;100.00
37238;BME280;23129;49.662;8.448;2023-02-13T09:13:00;102845.38;;;8.90;100.00
37238;BME280;23129;49.662;8.448;2023-02-13T09:15:29;102849.06;;;9.02;100.00
37238;BME280;23129;49.662;8.448;2023-02-13T09:17:57;102847.63;;;9.19;100.00
37238;BME280;23129;49.662;8.448;2023-02-13T09:20:26;102850.50;;;9.36;100.00
37238;BME280;23129;49.662;8.448;2023-02-13T09:22:55;102848.09;;;9.48;100.00
37238;BME280;23129;49.662;8.448;2023-02-13T09:25:24;102850.91;;;9.60;100.00
37238;BME280;23129;49.662;8.448;2023-02-13T09:27:52;102854.63;;;9.76;100.00
37238;BME280;23129;49.662;8.448;2023-02-13T09:30:22;102847.88;;;9.95;100.00
37238;BME280;23129;49.662;8.448;2023-02-13T09:32:52;102843.81;;;10.19;100.00
37238;BME280;23129;49.662;8.448;2023-02-13T09:35:21;102848.41;;;10.32;100.00
37238;BME280;23129;49.662;8.448;2023-02-13T09:37:49;102847.66;;;10.42;100.00
37238;BME280;23129;49.662;8.448;2023-02-13T09:40:25;102846.94;;;10.59;100.00
37238;BME280;23129;49.662;8.448;2023-02-13T09:43:06;102838.34;;;10.72;100.00
37238;BME280;23129;49.662;8.448;2023-02-13T09:45:37;102841.97;;;10.83;100.00
37238;BME280;23129;49.662;8.448;2023-02-13T09:48:07;102842.06;;;10.92;100.00
37238;BME280;23129;49.662;8.448;2023-02-13T09:50:38;102841.19;;;10.96;100.00
37238;BME280;23129;49.662;8.448;2023-02-13T09:53:06;102842.19;;;11.08;100.00
37238;BME280;23129;49.662;8.448;2023-02-13T09:55:42;102845.84;;;11.25;100.00
37238;BME280;23129;49.662;8.448;2023-02-13T09:58:29;102844.31;;;11.55;100.00
37238;BME280;23129;49.662;8.448;2023-02-13T10:01:10;102840.97;;;11.83;100.00
37238;BME280;23129;49.662;8.448;2023-02-13T10:03:45;102839.34;;;12.04;100.00
37238;BME280;23129;49.662;8.448;2023-02-13T10:06:22;102846.41;;;12.17;100.00
37238;BME280;23129;49.662;8.448;2023-02-13T10:09:08;102839.47;;;12.33;100.00
37238;BME280;23129;49.662;8.448;2023-02-13T10:12:03;102830.75;;;12.42;100.00
37238;BME280;23129;49.662;8.448;2023-02-13T10:14:42;102835.16;;;12.50;100.00
37238;BME280;23129;49.662;8.448;2023-02-13T10:17:20;102836.06;;;12.66;100.00
37238;BME280;23129;49.662;8.448;2023-02-13T10:19:55;102833.44;;;12.78;100.00
37238;BME280;23129;49.662;8.448;2023-02-13T10:22:33;102836.09;;;12.91;100.00
37238;BME280;23129;49.662;8.448;2023-02-13T10:25:07;102832.56;;;13.01;100.00
37238;BME280;23129;49.662;8.448;2023-02-13T10:27:43;102836.13;;;13.17;100.00
37238;BME280;23129;49.662;8.448;2023-02-13T10:30:17;102834.38;;;13.27;100.00
37238;BME280;23129;49.662;8.448;2023-02-13T10:32:57;102829.09;;;13.39;100.00
37238;BME280;23129;49.662;8.448;2023-02-13T10:35:42;102831.72;;;13.45;100.00
37238;BME280;23129;49.662;8.448;2023-02-13T10:38:15;102834.34;;;13.53;100.00
37238;BME280;23129;49.662;8.448;2023-02-13T10:41:02;102836.09;;;13.67;100.00
37238;BME280;23129;49.662;8.448;2023-02-13T10:43:39;102829.00;;;13.79;100.00
37238;BME280;23129;49.662;8.448;2023-02-13T10:46:22;102827.19;;;13.99;100.00
37238;BME280;23129;49.662;8.448;2023-02-13T10:49:12;102823.63;;;14.12;100.00
37238;BME280;23129;49.662;8.448;2023-02-13T10:51:50;102815.59;;;14.32;100.00
37238;BME280;23129;49.662;8.448;2023-02-13T10:54:44;102812.88;;;14.49;100.00
37238;BME280;23129;49.662;8.448;2023-02-13T10:57:23;102805.78;;;14.64;100.00
37238;BME280;23129;49.662;8.448;2023-02-13T11:00:07;102804.72;;;14.83;100.00
37238;BME280;23129;49.662;8.448;2023-02-13T11:02:38;102797.56;;;15.00;100.00
37238;BME280;23129;49.662;8.448;2023-02-13T11:05:17;102796.56;;;15.12;100.00
37238;BME280;23129;49.662;8.448;2023-02-13T11:07:46;102800.06;;;15.16;100.00
37238;BME280;23129;49.662;8.448;2023-02-13T11:10:18;102797.31;;;15.25;100.00
37238;BME280;23129;49.662;8.448;2023-02-13T11:12:47;102784.00;;;15.36;100.00
37238;BME280;23129;49.662;8.448;2023-02-13T11:15:25;102787.47;;;15.42;100.00
37238;BME280;23129;49.662;8.448;2023-02-13T11:17:56;102790.00;;;15.53;100.00
37238;BME280;23129;49.662;8.448;2023-02-13T11:20:32;102774.91;;;15.63;100.00
37238;BME280;23129;49.662;8.448;2023-02-13T11:23:27;102769.44;;;15.78;100.00
37238;BME280;23129;49.662;8.448;2023-02-13T11:26:03;102764.88;;;15.91;100.00
37238;BME280;23129;49.662;8.448;2023-02-13T11:28:37;102763.84;;;16.03;100.00
37238;BME280;23129;49.662;8.448;2023-02-13T11:31:21;102772.53;;;16.14;100.00
37238;BME280;23129;49.662;8.448;2023-02-13T11:33:51;102770.66;;;16.22;100.00
37238;BME280;23129;49.662;8.448;2023-02-13T11:36:26;102770.38;;;16.39;100.00
37238;BME280;23129;49.662;8.448;2023-02-13T11:39:00;102769.28;;;16.55;100.00
37238;BME280;23129;49.662;8.448;2023-02-13T11:41:31;102762.81;;;16.73;100.00
37238;BME280;23129;49.662;8.448;2023-02-13T11:44:04;102759.94;;;16.88;100.00
37238;BME280;23129;49.662;8.448;2023-02-13T11:46:46;102760.78;;;16.91;100.00
37238;BME280;23129;49.662;8.448;2023-02-13T11:49:18;102761.66;;;16.89;100.00
37238;BME280;23129;49.662;8.448;2023-02-13T11:51:50;102758.97;;;16.93;100.00
37238;BME280;23129;49.662;8.448;2023-02-13T11:54:31;102753.50;;;17.02;100.00
37238;BME280;23129;49.662;8.448;2023-02-13T11:57:08;102758.44;;;17.23;100.00
37238;BME280;23129;49.662;8.448;2023-02-13T11:59:47;102761.56;;;17.44;100.00
37238;BME280;23129;49.662;8.448;2023-02-13T12:02:19;102761.34;;;17.56;100.00
37238;BME280;23129;49.662;8.448;2023-02-13T12:04:51;102752.38;;;17.62;100.00
37238;BME280;23129;49.662;8.448;2023-02-13T12:07:24;102753.13;;;17.68;100.00
37238;BME280;23129;49.662;8.448;2023-02-13T12:09:59;102757.38;;;17.78;100.00
37238;BME280;23129;49.662;8.448;2023-02-13T12:12:36;102755.38;;;17.88;100.00
37238;BME280;23129;49.662;8.448;2023-02-13T12:15:16;102744.56;;;17.97;100.00
37238;BME280;23129;49.662;8.448;2023-02-13T12:17:50;102757.72;;;18.03;100.00
37238;BME280;23129;49.662;8.448;2023-02-13T12:20:19;102744.56;;;17.99;100.00
37238;BME280;23129;49.662;8.448;2023-02-13T12:23:01;102743.69;;;17.97;100.00
37238;BME280;23129;49.662;8.448;2023-02-13T12:25:55;102742.88;;;17.95;100.00
37238;BME280;23129;49.662;8.448;2023-02-13T12:28:41;102733.94;;;17.99;100.00
37238;BME280;23129;49.662;8.448;2023-02-13T12:31:43;102735.47;;;18.09;100.00
37238;BME280;23129;49.662;8.448;2023-02-13T12:34:52;102737.22;;;18.10;100.00
37238;BME280;23129;49.662;8.448;2023-02-13T12:37:51;102734.22;;;18.24;100.00
37238;BME280;23129;49.662;8.448;2023-02-13T12:44:36;102723.44;;;18.67;100.00
37238;BME280;23129;49.662;8.448;2023-02-13T12:47:15;102717.59;;;18.89;100.00
37238;BME280;23129;49.662;8.448;2023-02-13T12:50:12;102704.91;;;19.00;100.00
37238;BME280;23129;49.662;8.448;2023-02-13T12:59:03;102706.63;;;19.34;98.42
37238;BME280;23129;49.662;8.448;2023-02-13T13:01:57;102705.53;;;19.41;98.85
37238;BME280;23129;49.662;8.448;2023-02-13T13:04:42;102704.72;;;19.39;97.91
37238;BME280;23129;49.662;8.448;2023-02-13T13:07:40;102695.78;;;19.42;98.45
37238;BME280;23129;49.662;8.448;2023-02-13T13:10:32;102691.94;;;19.50;98.08
37238;BME280;23129;49.662;8.448;2023-02-13T13:13:16;102689.03;;;19.59;96.67
37238;BME280;23129;49.662;8.448;2023-02-13T13:15:58;102683.56;;;19.66;96.13
37238;BME280;23129;49.662;8.448;2023-02-13T13:18:41;102685.19;;;19.70;95.97
37238;BME280;23129;49.662;8.448;2023-02-13T13:21:22;102685.19;;;19.70;95.49
37238;BME280;23129;49.662;8.448;2023-02-13T13:23:54;102672.91;;;19.64;94.38
37238;BME280;23129;49.662;8.448;2023-02-13T13:26:33;102673.69;;;19.69;94.57
37238;BME280;23129;49.662;8.448;2023-02-13T13:29:10;102671.59;;;19.79;94.31
37238;BME280;23129;49.662;8.448;2023-02-13T13:31:51;102674.16;;;19.82;94.04
37238;BME280;23129;49.662;8.448;2023-02-13T13:34:24;102663.50;;;19.82;93.24
37238;BME280;23129;49.662;8.448;2023-02-13T13:36:58;102670.56;;;19.83;92.90